createdAt,value
2022-11-20T00:01:33.858Z,49.45
2022-11-20T00:04:01.687Z,44.22
2022-11-20T00:06:29.957Z,43.20
2022-11-20T00:09:01.051Z,48.58
2022-11-20T00:11:32.344Z,48.93
2022-11-20T00:14:02.203Z,50.15
2022-11-20T00:16:32.944Z,46.85
2022-11-20T00:19:00.111Z,49.30
2022-11-20T00:21:35.525Z,47.88
2022-11-20T00:24:07.044Z,47.90
2022-11-20T00:26:34.158Z,42.85
2022-11-20T00:29:02.236Z,46.25
2022-11-20T00:31:31.259Z,51.53
2022-11-20T00:33:58.282Z,42.28
2022-11-20T00:36:29.361Z,44.50
2022-11-20T00:38:59.383Z,44.60
2022-11-20T00:41:28.961Z,46.20
2022-11-20T00:43:56.999Z,45.42
2022-11-20T00:46:27.951Z,43.28
2022-11-20T00:48:55.212Z,43.70
2022-11-20T00:51:25.952Z,42.83
2022-11-20T00:53:55.504Z,40.38
2022-11-20T00:56:22.522Z,43.80
2022-11-20T00:58:50.369Z,40.00
2022-11-20T01:01:26.500Z,40.67
2022-11-20T01:03:57.833Z,44.97
2022-11-20T01:06:27.392Z,41.22
2022-11-20T01:08:57.711Z,38.88
2022-11-20T01:11:28.488Z,39.30
2022-11-20T01:13:59.582Z,41.20
2022-11-20T01:16:37.895Z,39.13
2022-11-20T01:19:14.801Z,37.47
2022-11-20T01:21:47.083Z,41.60
2022-11-20T01:24:35.335Z,36.03
2022-11-20T01:27:02.331Z,39.13
2022-11-20T01:29:32.075Z,37.15
2022-11-20T01:31:59.241Z,38.25
2022-11-20T01:34:28.777Z,37.72
2022-11-20T01:36:55.891Z,38.80
2022-11-20T01:39:26.126Z,36.50
2022-11-20T01:42:31.099Z,36.38
2022-11-20T01:45:03.187Z,32.78
2022-11-20T01:47:48.059Z,33.70
2022-11-20T01:50:29.942Z,39.17
2022-11-20T01:53:07.155Z,39.17
2022-11-20T01:55:41.049Z,33.70
2022-11-20T01:58:08.452Z,32.63
2022-11-20T02:00:36.048Z,35.63
2022-11-20T02:03:10.014Z,31.27
2022-11-20T02:05:42.086Z,34.70
2022-11-20T02:08:09.199Z,30.98
2022-11-20T02:10:36.589Z,29.42
2022-11-20T02:13:22.982Z,32.50
2022-11-20T02:15:50.572Z,29.25
2022-11-20T02:18:20.543Z,32.63
2022-11-20T02:20:53.041Z,29.48
2022-11-20T02:23:40.530Z,22.70
2022-11-20T02:26:13.265Z,28.17
2022-11-20T02:28:40.494Z,28.50
2022-11-20T02:31:07.519Z,28.42
2022-11-20T02:33:37.032Z,26.05
2022-11-20T02:36:06.672Z,27.77
2022-11-20T02:38:36.203Z,25.98
2022-11-20T02:41:03.278Z,27.90
2022-11-20T02:43:30.267Z,24.10
2022-11-20T02:45:57.372Z,27.92
2022-11-20T02:48:30.211Z,24.80
2022-11-20T02:51:00.883Z,26.15
2022-11-20T02:53:27.958Z,24.73
2022-11-20T02:55:54.999Z,22.55
2022-11-20T02:58:24.976Z,25.90
2022-11-20T03:00:53.427Z,26.73
2022-11-20T03:03:21.002Z,28.42
2022-11-20T03:05:47.979Z,27.38
2022-11-20T03:08:14.999Z,30.25
2022-11-20T03:10:46.514Z,27.10
2022-11-20T03:13:13.566Z,23.67
2022-11-20T03:15:40.555Z,25.13
2022-11-20T03:18:07.620Z,30.08
2022-11-20T03:20:35.526Z,31.48
2022-11-20T03:23:05.328Z,25.88
2022-11-20T03:25:32.477Z,28.00
2022-11-20T03:27:59.456Z,27.98
2022-11-20T03:30:30.561Z,29.98
2022-11-20T03:33:00.816Z,27.42
2022-11-20T03:35:27.986Z,25.23
2022-11-20T03:37:55.047Z,24.58
2022-11-20T03:40:22.061Z,25.42
2022-11-20T03:42:49.191Z,25.35
2022-11-20T03:45:18.729Z,21.85
2022-11-20T03:47:48.481Z,30.02
2022-11-20T03:50:16.178Z,23.65
2022-11-20T03:52:43.732Z,25.13
2022-11-20T03:55:13.274Z,25.73
2022-11-20T03:57:40.386Z,24.83
2022-11-20T04:00:08.111Z,23.85
2022-11-20T04:02:35.298Z,28.27
2022-11-20T04:05:04.928Z,29.50
2022-11-20T04:07:32.439Z,24.27
2022-11-20T04:09:59.519Z,24.00
2022-11-20T04:12:26.514Z,28.35
2022-11-20T04:14:59.025Z,26.90
2022-11-20T04:17:26.045Z,31.60
2022-11-20T04:19:55.124Z,24.20
2022-11-20T04:22:27.202Z,28.35
2022-11-20T04:24:54.326Z,27.75
2022-11-20T04:27:21.619Z,27.67
2022-11-20T04:29:50.668Z,25.77
2022-11-20T04:32:20.258Z,29.13
2022-11-20T04:34:47.266Z,33.03
2022-11-20T04:37:14.255Z,25.73
2022-11-20T04:39:47.553Z,31.67
2022-11-20T04:42:29.919Z,31.60
2022-11-20T04:45:00.836Z,29.13
2022-11-20T04:47:27.840Z,29.88
2022-11-20T04:49:55.050Z,27.55
2022-11-20T04:52:22.040Z,30.00
2022-11-20T04:54:49.099Z,31.88
2022-11-20T04:57:18.660Z,30.80
2022-11-20T04:59:45.718Z,32.95
2022-11-20T05:02:13.266Z,33.33
2022-11-20T05:04:40.285Z,35.55
2022-11-20T05:07:07.324Z,35.42
2022-11-20T05:09:34.549Z,35.33
2022-11-20T05:12:01.551Z,33.75
2022-11-20T05:14:28.620Z,34.75
2022-11-20T05:16:55.717Z,30.95
2022-11-20T05:19:23.071Z,39.13
2022-11-20T05:21:50.291Z,41.80
2022-11-20T05:24:19.743Z,51.33
2022-11-20T05:26:46.817Z,48.83
2022-11-20T05:29:14.279Z,45.65
2022-11-20T05:31:42.511Z,40.97
2022-11-20T05:34:09.783Z,35.15
2022-11-20T05:36:36.791Z,32.22
2022-11-20T05:39:04.247Z,31.23
2022-11-20T05:41:31.442Z,32.92
2022-11-20T05:43:59.341Z,28.55
2022-11-20T05:46:29.008Z,30.52
2022-11-20T05:48:58.430Z,27.33
2022-11-20T05:51:26.347Z,31.40
2022-11-20T05:53:53.449Z,32.20
2022-11-20T05:56:22.827Z,28.02
2022-11-20T05:58:50.494Z,28.95
2022-11-20T06:01:25.531Z,29.38
2022-11-20T06:03:58.023Z,29.38
2022-11-20T06:06:27.043Z,27.85
2022-11-20T06:08:55.106Z,29.02
2022-11-20T06:11:22.614Z,33.97
2022-11-20T06:13:49.765Z,30.70
2022-11-20T06:16:20.409Z,31.13
2022-11-20T06:18:47.841Z,30.75
2022-11-20T06:21:18.812Z,31.15
2022-11-20T06:23:46.498Z,33.00
2022-11-20T06:26:26.467Z,39.00
2022-11-20T06:28:54.704Z,34.22
2022-11-20T06:31:24.658Z,40.47
2022-11-20T06:33:52.222Z,31.55
2022-11-20T06:36:22.646Z,36.47
2022-11-20T06:38:50.079Z,29.52
2022-11-20T06:41:20.645Z,30.17
2022-11-20T06:43:48.271Z,31.52
2022-11-20T06:46:18.683Z,28.50
2022-11-20T06:48:46.574Z,33.97
2022-11-20T06:51:14.029Z,33.72
2022-11-20T06:53:41.314Z,27.17
2022-11-20T06:56:08.781Z,32.03
2022-11-20T06:58:37.163Z,28.40
2022-11-20T07:01:08.439Z,29.17
2022-11-20T07:03:35.679Z,34.38
2022-11-20T07:06:04.161Z,28.52
2022-11-20T07:08:35.053Z,28.85
2022-11-20T07:11:08.012Z,31.25
2022-11-20T07:13:35.619Z,39.60
2022-11-20T07:16:07.965Z,31.58
2022-11-20T07:18:35.264Z,37.45
2022-11-20T07:21:08.655Z,34.80
2022-11-20T07:23:42.364Z,41.85
2022-11-20T07:26:12.148Z,39.85
2022-11-20T07:28:39.604Z,34.83
2022-11-20T07:31:12.342Z,37.63
2022-11-20T07:33:41.629Z,34.70
2022-11-20T07:36:08.966Z,41.92
2022-11-20T07:38:36.050Z,34.10
2022-11-20T07:41:03.055Z,34.95
2022-11-20T07:43:30.304Z,37.97
2022-11-20T07:45:58.765Z,37.10
2022-11-20T07:48:26.820Z,41.90
2022-11-20T07:50:57.712Z,43.80
2022-11-20T07:53:25.258Z,49.30
2022-11-20T07:55:55.313Z,50.10
2022-11-20T07:58:23.052Z,52.92
2022-11-20T08:00:50.377Z,51.72
2022-11-20T08:03:24.596Z,41.78
2022-11-20T08:05:52.478Z,42.10
2022-11-20T08:08:19.692Z,42.60
2022-11-20T08:10:49.130Z,44.33
2022-11-20T08:13:34.944Z,42.40
2022-11-20T08:16:02.348Z,39.10
2022-11-20T08:18:31.883Z,40.92
2022-11-20T08:21:04.957Z,44.83
2022-11-20T08:23:32.056Z,43.40
2022-11-20T08:25:59.054Z,40.25
2022-11-20T08:28:26.026Z,50.83
2022-11-20T08:30:58.522Z,42.75
2022-11-20T08:33:25.545Z,45.50
2022-11-20T08:35:54.728Z,45.92
2022-11-20T08:38:21.742Z,41.35
2022-11-20T08:41:08.784Z,47.25
2022-11-20T08:43:35.781Z,47.08
2022-11-20T08:46:02.930Z,43.28
2022-11-20T08:48:30.039Z,49.88
2022-11-20T08:51:00.517Z,53.28
2022-11-20T08:53:28.860Z,51.25
2022-11-20T08:55:59.195Z,44.55
2022-11-20T08:58:27.159Z,43.97
2022-11-20T09:00:54.729Z,48.30
2022-11-20T09:03:21.791Z,51.70
2022-11-20T09:05:48.814Z,47.65
2022-11-20T09:08:16.010Z,61.53
2022-11-20T09:10:43.007Z,52.53
2022-11-20T09:13:10.124Z,56.58
2022-11-20T09:15:37.060Z,59.75
2022-11-20T09:18:07.518Z,53.78
2022-11-20T09:20:37.192Z,54.53
2022-11-20T09:23:04.234Z,49.80
2022-11-20T09:25:31.319Z,49.30
2022-11-20T09:28:01.196Z,51.72
2022-11-20T09:30:28.858Z,48.75
2022-11-20T09:32:55.995Z,44.20
2022-11-20T09:35:23.280Z,39.42
2022-11-20T09:37:50.531Z,41.72
2022-11-20T09:40:30.463Z,44.03
2022-11-20T09:43:36.340Z,38.70
2022-11-20T09:46:15.859Z,47.85
2022-11-20T09:49:37.873Z,45.58
2022-11-20T09:52:28.215Z,43.92
2022-11-20T09:54:58.836Z,42.95
2022-11-20T09:57:43.413Z,42.55
2022-11-20T10:00:17.996Z,41.08
2022-11-20T10:03:32.365Z,45.75
2022-11-20T10:06:04.675Z,41.35
2022-11-20T10:08:50.356Z,42.40
2022-11-20T10:11:45.552Z,45.03
2022-11-20T10:14:52.546Z,45.75
2022-11-20T10:18:04.301Z,48.03
2022-11-20T10:20:43.776Z,53.58
2022-11-20T10:23:57.816Z,44.22
2022-11-20T10:26:53.851Z,50.38
2022-11-20T10:29:36.362Z,46.97
2022-11-20T10:32:17.389Z,52.58
2022-11-20T10:34:58.389Z,51.15
2022-11-20T10:37:31.810Z,57.00
2022-11-20T10:40:52.253Z,54.80
2022-11-20T10:43:34.300Z,56.55
2022-11-20T10:46:13.467Z,52.45
2022-11-20T10:48:45.155Z,60.00
2022-11-20T10:51:46.478Z,61.28
2022-11-20T10:54:33.739Z,60.78
2022-11-20T10:57:32.471Z,63.63
2022-11-20T11:00:07.849Z,59.50
2022-11-20T11:02:50.514Z,54.95
2022-11-20T11:05:49.792Z,55.65
2022-11-20T11:08:20.294Z,62.25
2022-11-20T11:11:08.365Z,64.40
2022-11-20T11:13:35.331Z,68.75
2022-11-20T11:16:03.974Z,74.97
2022-11-20T11:18:37.232Z,61.55
2022-11-20T11:21:06.405Z,60.80
2022-11-20T11:23:41.091Z,66.72
2022-11-20T11:26:22.531Z,72.88
2022-11-20T11:29:19.008Z,74.97
2022-11-20T11:31:45.998Z,60.50
2022-11-20T11:34:16.465Z,69.63
2022-11-20T11:36:50.645Z,53.75
2022-11-20T11:39:22.489Z,59.10
2022-11-20T11:41:50.413Z,60.65
2022-11-20T11:44:50.987Z,64.72
2022-11-20T11:47:49.418Z,57.85
2022-11-20T11:50:17.655Z,52.80
2022-11-20T11:52:57.949Z,53.00
2022-11-20T11:55:43.532Z,58.38
2022-11-20T11:58:41.938Z,60.78
2022-11-20T12:01:30.814Z,54.33
2022-11-20T12:04:18.093Z,56.80
2022-11-20T12:06:53.651Z,54.10
2022-11-20T12:09:29.550Z,50.45
2022-11-20T12:12:40.148Z,64.18
2022-11-20T12:15:30.165Z,55.50
2022-11-20T12:17:59.748Z,62.25
2022-11-20T12:20:45.290Z,62.95
2022-11-20T12:23:51.479Z,62.20
2022-11-20T12:26:54.536Z,59.88
2022-11-20T12:29:52.166Z,64.10
2022-11-20T12:32:47.115Z,62.05
2022-11-20T12:35:33.469Z,52.13
2022-11-20T12:38:41.161Z,64.72
2022-11-20T12:41:39.679Z,58.47
2022-11-20T12:44:47.134Z,57.28
2022-11-20T12:47:34.806Z,66.00
2022-11-20T12:50:42.824Z,68.13
2022-11-20T12:53:21.494Z,67.18
2022-11-20T12:56:29.022Z,71.50
2022-11-20T12:59:24.986Z,62.10
2022-11-20T13:02:10.756Z,68.90
2022-11-20T13:04:37.692Z,72.03
2022-11-20T13:07:11.013Z,56.75
2022-11-20T13:09:47.981Z,60.40
2022-11-20T13:12:25.805Z,64.60
2022-11-20T13:15:18.861Z,72.95
2022-11-20T13:18:09.139Z,61.40
2022-11-20T13:20:41.937Z,62.42
2022-11-20T13:23:08.973Z,54.60
2022-11-20T13:25:39.831Z,57.28
2022-11-20T13:28:31.160Z,53.72
2022-11-20T13:30:59.746Z,50.28
2022-11-20T13:33:37.430Z,56.13
2022-11-20T13:36:22.566Z,54.83
2022-11-20T13:38:56.245Z,48.63
2022-11-20T13:41:28.951Z,47.65
2022-11-20T13:44:23.378Z,57.10
2022-11-20T13:46:50.470Z,53.38
2022-11-20T13:49:45.423Z,56.85
2022-11-20T13:52:49.442Z,51.90
2022-11-20T13:55:34.712Z,55.20
2022-11-20T13:58:29.508Z,55.08
2022-11-20T14:01:02.593Z,58.92
2022-11-20T14:06:32.616Z,54.07
2022-11-20T14:09:00.750Z,49.85
2022-11-20T14:11:32.426Z,45.78
2022-11-20T14:14:14.189Z,48.70
2022-11-20T14:16:41.365Z,49.50
2022-11-20T14:19:31.764Z,46.13
2022-11-20T14:22:19.195Z,44.10
2022-11-20T14:24:50.233Z,39.45
2022-11-20T14:27:22.341Z,46.20
2022-11-20T14:29:51.266Z,53.05
2022-11-20T14:32:31.544Z,56.15
2022-11-20T14:35:09.587Z,50.17
2022-11-20T14:37:40.791Z,46.42
2022-11-20T14:40:29.883Z,35.67
2022-11-20T14:42:59.153Z,47.63
2022-11-20T14:45:29.285Z,44.72
2022-11-20T14:47:59.385Z,47.95
2022-11-20T14:50:30.353Z,52.83
2022-11-20T14:53:02.403Z,58.65
2022-11-20T14:55:38.275Z,51.58
2022-11-20T14:58:29.187Z,48.97
2022-11-20T15:01:08.589Z,53.05
2022-11-20T15:03:42.037Z,48.95
2022-11-20T15:06:16.187Z,47.97
2022-11-20T15:08:53.151Z,54.40
2022-11-20T15:11:33.184Z,57.00
2022-11-20T15:14:07.056Z,56.38
2022-11-20T15:16:34.533Z,55.47
2022-11-20T15:19:04.563Z,56.55
2022-11-20T15:21:31.564Z,55.67
2022-11-20T15:23:59.378Z,61.10
2022-11-20T15:26:29.075Z,64.13
2022-11-20T15:28:56.161Z,52.05
2022-11-20T15:31:26.426Z,56.83
2022-11-20T15:33:53.498Z,53.33
2022-11-20T15:36:20.665Z,56.55
2022-11-20T15:38:47.643Z,56.40
2022-11-20T15:41:14.648Z,56.72
2022-11-20T15:43:41.639Z,58.13
2022-11-20T15:46:16.832Z,61.80
2022-11-20T15:48:53.135Z,66.15
2022-11-20T15:51:27.694Z,54.50
2022-11-20T15:53:57.098Z,59.17
2022-11-20T15:56:24.898Z,58.28
2022-11-20T15:58:51.882Z,54.45
2022-11-20T16:01:22.812Z,53.58
2022-11-20T16:03:50.249Z,54.10
2022-11-20T16:06:19.699Z,54.70
2022-11-20T16:08:49.230Z,60.90
2022-11-20T16:11:20.359Z,55.95
2022-11-20T16:14:06.252Z,59.88
2022-11-20T16:16:39.591Z,65.30
2022-11-20T16:19:06.586Z,63.03
2022-11-20T16:21:33.813Z,61.28
2022-11-20T16:24:07.356Z,55.50
2022-11-20T16:26:36.614Z,56.38
2022-11-20T16:29:06.223Z,58.00
2022-11-20T16:31:34.610Z,58.67
2022-11-20T16:34:23.407Z,58.00
2022-11-20T16:36:50.561Z,56.33
2022-11-20T16:39:23.969Z,60.05
2022-11-20T16:41:51.282Z,59.92
2022-11-20T16:44:18.282Z,56.72
2022-11-20T16:46:45.238Z,60.28
2022-11-20T16:49:14.535Z,54.78
2022-11-20T16:51:42.862Z,57.33
2022-11-20T16:54:10.817Z,55.95
2022-11-20T16:56:38.272Z,53.42
2022-11-20T16:59:05.911Z,55.28
2022-11-20T17:01:33.161Z,54.83
2022-11-20T17:04:03.353Z,53.80
2022-11-20T17:06:36.100Z,50.08
2022-11-20T17:09:06.105Z,56.55
2022-11-20T17:11:36.052Z,53.45
2022-11-20T17:14:07.501Z,51.83
2022-11-20T17:16:38.855Z,61.85
2022-11-20T17:19:05.988Z,56.87
2022-11-20T17:21:36.210Z,57.38
2022-11-20T17:24:06.662Z,56.65
2022-11-20T17:26:35.164Z,53.33
2022-11-20T17:29:06.995Z,46.40
2022-11-20T17:31:35.058Z,51.65
2022-11-20T17:34:02.621Z,50.33
2022-11-20T17:36:33.263Z,50.00
2022-11-20T17:39:00.715Z,50.92
2022-11-20T17:41:30.318Z,52.20
2022-11-20T17:44:00.441Z,49.17
2022-11-20T17:46:33.471Z,49.20
2022-11-20T17:49:02.128Z,54.50
2022-11-20T17:51:33.307Z,51.65
2022-11-20T17:54:05.311Z,51.50
2022-11-20T17:56:52.723Z,50.47
2022-11-20T17:59:22.645Z,47.92
2022-11-20T18:01:49.842Z,48.03
2022-11-20T18:04:17.328Z,46.00
2022-11-20T18:06:44.710Z,43.17
2022-11-20T18:09:12.427Z,43.58
2022-11-20T18:11:43.170Z,48.08
2022-11-20T18:14:32.562Z,46.83
2022-11-20T18:19:40.944Z,43.97
2022-11-20T18:22:13.768Z,41.63
2022-11-20T18:24:42.191Z,44.90
2022-11-20T18:27:20.707Z,43.05
2022-11-20T18:29:51.923Z,46.85
2022-11-20T18:32:22.848Z,52.00
2022-11-20T18:34:51.370Z,41.70
2022-11-20T18:37:19.071Z,49.20
2022-11-20T18:39:50.713Z,50.20
2022-11-20T18:42:36.719Z,46.65
2022-11-20T18:45:07.409Z,48.80
2022-11-20T18:47:40.081Z,49.33
2022-11-20T18:50:11.903Z,54.70
2022-11-20T18:52:44.558Z,47.97
2022-11-20T18:55:12.938Z,51.88
2022-11-20T18:57:40.134Z,53.67
2022-11-20T19:00:11.088Z,52.38
2022-11-20T19:02:42.251Z,48.50
2022-11-20T19:05:14.697Z,51.38
2022-11-20T19:07:42.727Z,50.97
2022-11-20T19:10:10.165Z,61.35
2022-11-20T19:12:37.218Z,61.17
2022-11-20T19:15:04.991Z,57.55
2022-11-20T19:17:33.907Z,54.45
2022-11-20T19:20:01.005Z,57.67
2022-11-20T19:22:28.196Z,56.63
2022-11-20T19:24:55.241Z,57.15
2022-11-20T19:27:22.289Z,58.33
2022-11-20T19:29:57.665Z,53.72
2022-11-20T19:32:25.542Z,55.60
2022-11-20T19:34:53.777Z,54.50
2022-11-20T19:37:20.821Z,54.35
2022-11-20T19:39:48.332Z,58.90
2022-11-20T19:42:15.563Z,54.17
2022-11-20T19:44:42.834Z,54.08
2022-11-20T19:47:14.210Z,58.15
2022-11-20T19:49:41.966Z,61.83
2022-11-20T19:52:09.431Z,52.38
2022-11-20T19:54:37.058Z,53.55
2022-11-20T19:57:04.033Z,53.35
2022-11-20T19:59:31.209Z,56.40
2022-11-20T20:01:58.396Z,56.78
2022-11-20T20:04:27.552Z,59.15
2022-11-20T20:06:54.656Z,55.45
2022-11-20T20:09:23.844Z,57.15
2022-11-20T20:11:50.997Z,55.28
2022-11-20T20:14:20.556Z,56.60
2022-11-20T20:16:47.803Z,55.05
2022-11-20T20:19:16.973Z,59.30
2022-11-20T20:21:44.674Z,54.22
2022-11-20T20:24:14.630Z,56.47
2022-11-20T20:26:42.211Z,58.10
2022-11-20T20:29:09.376Z,53.00
2022-11-20T20:31:36.451Z,50.55
2022-11-20T20:34:05.491Z,52.53
2022-11-20T20:36:32.641Z,53.78
2022-11-20T20:39:04.609Z,58.55
2022-11-20T20:41:32.268Z,59.90
2022-11-20T20:44:18.037Z,57.47
2022-11-20T20:46:45.195Z,57.70
2022-11-20T20:49:12.436Z,54.72
2022-11-20T20:51:39.457Z,55.90
2022-11-20T20:54:06.591Z,54.60
2022-11-20T20:56:33.630Z,54.38
2022-11-20T20:59:00.722Z,51.22
2022-11-20T21:01:28.892Z,51.03
2022-11-20T21:03:57.039Z,52.38
2022-11-20T21:06:24.558Z,49.88
2022-11-20T21:08:51.622Z,50.75
2022-11-20T21:11:20.296Z,46.53
2022-11-20T21:13:48.993Z,50.20
2022-11-20T21:16:18.176Z,52.67
2022-11-20T21:18:45.550Z,50.38
2022-11-20T21:21:32.706Z,49.88
2022-11-20T21:23:59.909Z,48.58
2022-11-20T21:26:27.312Z,50.47
2022-11-20T21:28:54.460Z,47.63
2022-11-20T21:31:27.359Z,48.75
2022-11-20T21:33:58.833Z,46.25
2022-11-20T21:36:29.048Z,51.60
2022-11-20T21:38:59.453Z,50.63
2022-11-20T21:41:30.441Z,55.72
2022-11-20T21:44:29.647Z,53.15
2022-11-20T21:46:48.708Z,56.40
2022-11-20T21:49:18.655Z,54.83
2022-11-20T21:51:45.668Z,54.80
2022-11-20T21:54:12.840Z,56.83
2022-11-20T21:56:40.028Z,61.75
2022-11-20T21:59:06.995Z,51.15
2022-11-20T22:01:34.077Z,48.28
2022-11-20T22:04:02.874Z,47.85
2022-11-20T22:06:36.538Z,45.97
2022-11-20T22:09:06.654Z,52.80
2022-11-20T22:11:33.725Z,47.15
2022-11-20T22:14:19.438Z,55.70
2022-11-20T22:16:47.266Z,58.60
2022-11-20T22:19:24.316Z,61.00
2022-11-20T22:21:51.317Z,57.38
2022-11-20T22:24:23.314Z,55.83
2022-11-20T22:26:53.410Z,55.53
2022-11-20T22:29:23.835Z,56.33
2022-11-20T22:31:53.994Z,55.58
2022-11-20T22:34:21.274Z,56.42
2022-11-20T22:36:48.526Z,51.55
2022-11-20T22:39:15.638Z,55.88
2022-11-20T22:41:42.671Z,54.22
2022-11-20T22:44:13.532Z,57.60
2022-11-20T22:46:40.601Z,57.55
2022-11-20T22:49:08.919Z,55.40
2022-11-20T22:51:39.362Z,58.75
2022-11-20T22:54:07.548Z,53.60
2022-11-20T22:56:35.212Z,53.50
2022-11-20T22:59:04.564Z,57.58
2022-11-20T23:01:37.923Z,53.05
2022-11-20T23:04:10.829Z,50.83
2022-11-20T23:07:00.414Z,54.00
2022-11-20T23:09:29.751Z,52.42
2022-11-20T23:11:56.710Z,49.42
2022-11-20T23:14:28.317Z,56.72
2022-11-20T23:16:55.395Z,54.70
2022-11-20T23:19:22.712Z,57.00
2022-11-20T23:21:49.770Z,60.50
2022-11-20T23:24:16.796Z,58.03
2022-11-20T23:26:45.265Z,56.42
2022-11-20T23:29:13.002Z,55.58
2022-11-20T23:31:43.447Z,53.28
2022-11-20T23:34:10.676Z,54.67
2022-11-20T23:36:37.665Z,55.55
2022-11-20T23:39:08.672Z,52.95
2022-11-20T23:41:35.693Z,59.80
2022-11-20T23:44:02.772Z,59.55
2022-11-20T23:46:29.761Z,61.15
2022-11-20T23:48:56.716Z,61.50
2022-11-20T23:51:23.768Z,58.33
2022-11-20T23:53:50.820Z,55.10
2022-11-20T23:56:17.826Z,60.95
2022-11-20T23:58:44.887Z,62.65
